sensor_id;sensor_type;location;lat;lon;timestamp;pressure;altitude;pressure_sealevel;temperature;humidity
71384;BME280;67558;52.166;5.004;2023-10-31T00:00:31;99698.22;;;14.99;64.89
71384;BME280;67558;52.166;5.004;2023-10-31T00:02:56;99711.06;;;15.02;64.80
71384;BME280;67558;52.166;5.004;2023-10-31T00:05:22;99709.47;;;15.01;64.82
71384;BME280;67558;52.166;5.004;2023-10-31T00:07:47;99706.16;;;15.04;64.77
71384;BME280;67558;52.166;5.004;2023-10-31T00:10:13;99704.72;;;15.06;65.11
71384;BME280;67558;52.166;5.004;2023-10-31T00:12:38;99699.31;;;15.06;64.93
71384;BME280;67558;52.166;5.004;2023-10-31T00:15:05;99712.13;;;15.09;64.93
71384;BME280;67558;52.166;5.004;2023-10-31T00:17:30;99717.88;;;15.08;64.88
71384;BME280;67558;52.166;5.004;2023-10-31T00:19:55;99719.44;;;15.09;65.15
71384;BME280;67558;52.166;5.004;2023-10-31T00:22:24;99712.91;;;15.10;65.17
71384;BME280;67558;52.166;5.004;2023-10-31T00:24:49;99712.91;;;15.10;65.01
71384;BME280;67558;52.166;5.004;2023-10-31T00:27:14;99713.38;;;15.12;65.00
71384;BME280;67558;52.166;5.004;2023-10-31T00:29:40;99712.75;;;15.15;65.02
71384;BME280;67558;52.166;5.004;2023-10-31T00:32:05;99715.63;;;15.19;65.17
71384;BME280;67558;52.166;5.004;2023-10-31T00:34:31;99712.56;;;15.20;65.14
71384;BME280;67558;52.166;5.004;2023-10-31T00:36:56;99709.41;;;15.18;64.99
71384;BME280;67558;52.166;5.004;2023-10-31T00:39:21;99718.75;;;15.21;64.97
71384;BME280;67558;52.166;5.004;2023-10-31T00:41:47;99719.56;;;15.21;64.87
71384;BME280;67558;52.166;5.004;2023-10-31T00:44:13;99716.53;;;15.23;65.02
71384;BME280;67558;52.166;5.004;2023-10-31T00:46:38;99724.59;;;15.23;65.29
71384;BME280;67558;52.166;5.004;2023-10-31T00:49:04;99724.28;;;15.24;65.23
71384;BME280;67558;52.166;5.004;2023-10-31T00:51:29;99730.00;;;15.23;65.17
71384;BME280;67558;52.166;5.004;2023-10-31T00:53:54;99723.81;;;15.22;64.96
71384;BME280;67558;52.166;5.004;2023-10-31T00:56:20;99729.69;;;15.24;65.26
71384;BME280;67558;52.166;5.004;2023-10-31T00:58:45;99739.00;;;15.27;65.20
71384;BME280;67558;52.166;5.004;2023-10-31T01:01:10;99744.88;;;15.29;64.96
71384;BME280;67558;52.166;5.004;2023-10-31T01:03:36;99742.66;;;15.31;65.01
71384;BME280;67558;52.166;5.004;2023-10-31T01:06:01;99743.44;;;15.31;65.10
71384;BME280;67558;52.166;5.004;2023-10-31T01:08:27;99741.53;;;15.32;65.16
71384;BME280;67558;52.166;5.004;2023-10-31T01:10:52;99739.94;;;15.31;65.08
71384;BME280;67558;52.166;5.004;2023-10-31T01:13:17;99737.59;;;15.29;65.05
71384;BME280;67558;52.166;5.004;2023-10-31T01:15:43;99743.31;;;15.28;64.87
71384;BME280;67558;52.166;5.004;2023-10-31T01:18:09;99749.63;;;15.32;65.11
71384;BME280;67558;52.166;5.004;2023-10-31T01:20:34;99745.69;;;15.29;64.86
71384;BME280;67558;52.166;5.004;2023-10-31T01:23:00;99746.47;;;15.30;65.14
71384;BME280;67558;52.166;5.004;2023-10-31T01:25:25;99746.13;;;15.31;65.03
71384;BME280;67558;52.166;5.004;2023-10-31T01:27:50;99742.53;;;15.27;64.88
71384;BME280;67558;52.166;5.004;2023-10-31T01:30:15;99742.53;;;15.27;64.90
71384;BME280;67558;52.166;5.004;2023-10-31T01:32:41;99746.31;;;15.26;64.95
71384;BME280;67558;52.166;5.004;2023-10-31T01:35:06;99749.78;;;15.27;65.21
71384;BME280;67558;52.166;5.004;2023-10-31T01:37:32;99755.66;;;15.29;65.06
71384;BME280;67558;52.166;5.004;2023-10-31T01:39:57;99752.00;;;15.25;65.25
71384;BME280;67558;52.166;5.004;2023-10-31T01:42:23;99753.44;;;15.22;65.12
71384;BME280;67558;52.166;5.004;2023-10-31T01:44:48;99746.16;;;15.23;65.20
71384;BME280;67558;52.166;5.004;2023-10-31T01:47:13;99751.53;;;15.23;64.91
71384;BME280;67558;52.166;5.004;2023-10-31T01:49:39;99750.63;;;15.19;64.92
71384;BME280;67558;52.166;5.004;2023-10-31T01:52:05;99752.19;;;15.20;65.16
71384;BME280;67558;52.166;5.004;2023-10-31T01:54:32;99751.53;;;15.23;65.18
71384;BME280;67558;52.166;5.004;2023-10-31T01:56:59;99760.59;;;15.18;65.13
71384;BME280;67558;52.166;5.004;2023-10-31T01:59:27;99758.38;;;15.20;65.16
71384;BME280;67558;52.166;5.004;2023-10-31T02:01:52;99762.19;;;15.19;65.23
71384;BME280;67558;52.166;5.004;2023-10-31T02:04:18;99761.84;;;15.21;65.04
71384;BME280;67558;52.166;5.004;2023-10-31T02:06:43;99766.78;;;15.19;65.16
71384;BME280;67558;52.166;5.004;2023-10-31T02:09:09;99769.94;;;15.21;65.04
71384;BME280;67558;52.166;5.004;2023-10-31T02:11:34;99769.50;;;15.19;65.08
71384;BME280;67558;52.166;5.004;2023-10-31T02:14:01;99773.28;;;15.18;65.19
71384;BME280;67558;52.166;5.004;2023-10-31T02:16:26;99770.28;;;15.19;64.94
71384;BME280;67558;52.166;5.004;2023-10-31T02:18:52;99774.53;;;15.20;65.05
71384;BME280;67558;52.166;5.004;2023-10-31T02:21:19;99785.00;;;15.22;64.95
71384;BME280;67558;52.166;5.004;2023-10-31T02:24:01;99787.53;;;15.18;65.16
71384;BME280;67558;52.166;5.004;2023-10-31T02:26:34;99781.66;;;15.16;64.99
71384;BME280;67558;52.166;5.004;2023-10-31T02:29:01;99790.09;;;15.14;64.92
71384;BME280;67558;52.166;5.004;2023-10-31T02:31:26;99790.41;;;15.13;65.30
71384;BME280;67558;52.166;5.004;2023-10-31T02:33:52;99798.78;;;15.11;65.00
71384;BME280;67558;52.166;5.004;2023-10-31T02:36:18;99801.97;;;15.13;65.18
71384;BME280;67558;52.166;5.004;2023-10-31T02:38:43;99802.75;;;15.14;64.98
71384;BME280;67558;52.166;5.004;2023-10-31T02:41:09;99805.13;;;15.15;65.19
71384;BME280;67558;52.166;5.004;2023-10-31T02:43:34;99809.41;;;15.17;65.17
71384;BME280;67558;52.166;5.004;2023-10-31T02:45:59;99806.72;;;15.17;65.17
71384;BME280;67558;52.166;5.004;2023-10-31T02:48:25;99809.72;;;15.15;65.11
71384;BME280;67558;52.166;5.004;2023-10-31T02:50:51;99812.72;;;15.13;65.08
71384;BME280;67558;52.166;5.004;2023-10-31T02:53:19;99815.59;;;15.08;65.49
71384;BME280;67558;52.166;5.004;2023-10-31T02:55:45;99822.06;;;15.16;65.25
71384;BME280;67558;52.166;5.004;2023-10-31T02:58:10;99818.78;;;15.10;65.36
71384;BME280;67558;52.166;5.004;2023-10-31T03:00:36;99813.38;;;15.10;65.14
71384;BME280;67558;52.166;5.004;2023-10-31T03:03:02;99826.38;;;15.08;65.24
71384;BME280;67558;52.166;5.004;2023-10-31T03:05:27;99823.69;;;15.08;65.11
71384;BME280;67558;52.166;5.004;2023-10-31T03:07:53;99826.38;;;15.08;65.25
71384;BME280;67558;52.166;5.004;2023-10-31T03:10:19;99828.44;;;15.03;65.25
71384;BME280;67558;52.166;5.004;2023-10-31T03:12:45;99834.78;;;15.07;65.25
71384;BME280;67558;52.166;5.004;2023-10-31T03:15:10;99833.34;;;15.09;65.10
71384;BME280;67558;52.166;5.004;2023-10-31T03:17:36;99838.41;;;15.02;65.51
71384;BME280;67558;52.166;5.004;2023-10-31T03:20:01;99845.38;;;15.03;65.40
71384;BME280;67558;52.166;5.004;2023-10-31T03:22:27;99850.16;;;15.06;65.34
71384;BME280;67558;52.166;5.004;2023-10-31T03:24:53;99848.88;;;15.04;65.50
71384;BME280;67558;52.166;5.004;2023-10-31T03:27:18;99853.94;;;15.05;65.29
71384;BME280;67558;52.166;5.004;2023-10-31T03:29:44;99859.78;;;15.07;65.12
71384;BME280;67558;52.166;5.004;2023-10-31T03:32:09;99871.81;;;15.10;65.14
71384;BME280;67558;52.166;5.004;2023-10-31T03:34:35;99864.69;;;15.05;65.19
71384;BME280;67558;52.166;5.004;2023-10-31T03:37:00;99868.22;;;15.06;65.03
71384;BME280;67558;52.166;5.004;2023-10-31T03:39:25;99871.03;;;15.09;64.72
71384;BME280;67558;52.166;5.004;2023-10-31T03:41:51;99875.00;;;15.21;64.39
71384;BME280;67558;52.166;5.004;2023-10-31T03:44:16;99865.81;;;15.22;64.33
71384;BME280;67558;52.166;5.004;2023-10-31T03:46:41;99874.38;;;15.24;64.29
71384;BME280;67558;52.166;5.004;2023-10-31T03:49:07;99878.00;;;15.28;64.33
71384;BME280;67558;52.166;5.004;2023-10-31T03:51:33;99877.22;;;15.27;64.04
71384;BME280;67558;52.166;5.004;2023-10-31T03:53:59;99882.91;;;15.26;64.21
71384;BME280;67558;52.166;5.004;2023-10-31T03:56:24;99881.00;;;15.26;64.06
71384;BME280;67558;52.166;5.004;2023-10-31T03:58:49;99893.38;;;15.27;63.81
71384;BME280;67558;52.166;5.004;2023-10-31T04:01:15;99890.34;;;15.29;63.86
71384;BME280;67558;52.166;5.004;2023-10-31T04:03:40;99884.97;;;15.29;63.77
71384;BME280;67558;52.166;5.004;2023-10-31T04:06:06;99892.25;;;15.28;63.76
71384;BME280;67558;52.166;5.004;2023-10-31T04:08:31;99891.16;;;15.29;63.86
71384;BME280;67558;52.166;5.004;2023-10-31T04:10:56;99889.88;;;15.27;63.72
71384;BME280;67558;52.166;5.004;2023-10-31T04:13:22;99891.00;;;15.26;63.69
71384;BME280;67558;52.166;5.004;2023-10-31T04:15:47;99895.91;;;15.24;63.64
71384;BME280;67558;52.166;5.004;2023-10-31T04:18:12;99901.00;;;15.25;63.50
71384;BME280;67558;52.166;5.004;2023-10-31T04:20:38;99902.41;;;15.23;63.66
71384;BME280;67558;52.166;5.004;2023-10-31T04:23:03;99915.88;;;15.23;63.59
71384;BME280;67558;52.166;5.004;2023-10-31T04:25:30;99910.16;;;15.24;63.65
71384;BME280;67558;52.166;5.004;2023-10-31T04:27:55;99923.16;;;15.22;63.37
71384;BME280;67558;52.166;5.004;2023-10-31T04:30:21;99920.47;;;15.22;63.21
71384;BME280;67558;52.166;5.004;2023-10-31T04:32:46;99921.91;;;15.20;63.15
71384;BME280;67558;52.166;5.004;2023-10-31T04:35:12;99918.09;;;15.21;63.27
71384;BME280;67558;52.166;5.004;2023-10-31T04:37:37;99923.81;;;15.19;63.35
71384;BME280;67558;52.166;5.004;2023-10-31T04:40:03;99922.22;;;15.18;63.26
71384;BME280;67558;52.166;5.004;2023-10-31T04:42:28;99919.03;;;15.16;63.42
71384;BME280;67558;52.166;5.004;2023-10-31T04:44:53;99922.56;;;15.17;63.30
71384;BME280;67558;52.166;5.004;2023-10-31T04:47:19;99925.25;;;15.17;63.23
71384;BME280;67558;52.166;5.004;2023-10-31T04:49:45;99936.81;;;15.17;63.17
71384;BME280;67558;52.166;5.004;2023-10-31T04:52:10;99937.44;;;15.14;63.27
71384;BME280;67558;52.166;5.004;2023-10-31T04:54:39;99934.72;;;15.14;63.37
71384;BME280;67558;52.166;5.004;2023-10-31T04:57:05;99936.63;;;15.13;63.35
71384;BME280;67558;52.166;5.004;2023-10-31T04:59:30;99931.25;;;15.13;63.40
71384;BME280;67558;52.166;5.004;2023-10-31T05:01:55;99943.47;;;15.11;63.51
71384;BME280;67558;52.166;5.004;2023-10-31T05:04:21;99941.25;;;15.13;63.43
71384;BME280;67558;52.166;5.004;2023-10-31T05:06:46;99946.63;;;15.13;63.52
71384;BME280;67558;52.166;5.004;2023-10-31T05:09:13;99939.97;;;15.10;63.55
71384;BME280;67558;52.166;5.004;2023-10-31T05:11:39;99948.84;;;15.11;63.36
71384;BME280;67558;52.166;5.004;2023-10-31T05:14:06;99950.75;;;15.10;63.54
71384;BME280;67558;52.166;5.004;2023-10-31T05:16:39;99949.63;;;15.11;63.54
71384;BME280;67558;52.166;5.004;2023-10-31T05:19:04;99950.09;;;15.13;63.43
71384;BME280;67558;52.166;5.004;2023-10-31T05:21:29;99966.75;;;15.15;63.53
71384;BME280;67558;52.166;5.004;2023-10-31T05:23:55;99958.97;;;15.14;63.29
71384;BME280;67558;52.166;5.004;2023-10-31T05:26:20;99968.34;;;15.17;63.46
71384;BME280;67558;52.166;5.004;2023-10-31T05:28:46;99974.22;;;15.19;63.30
71384;BME280;67558;52.166;5.004;2023-10-31T05:31:15;99974.34;;;14.96;64.05
71384;BME280;67558;52.166;5.004;2023-10-31T05:33:40;99984.78;;;14.89;64.31
71384;BME280;67558;52.166;5.004;2023-10-31T05:36:06;99977.97;;;14.83;64.59
71384;BME280;67558;52.166;5.004;2023-10-31T05:38:31;99980.16;;;14.81;64.66
71384;BME280;67558;52.166;5.004;2023-10-31T05:40:56;99979.88;;;14.82;64.60
71384;BME280;67558;52.166;5.004;2023-10-31T05:43:22;99986.81;;;14.83;64.62
71384;BME280;67558;52.166;5.004;2023-10-31T05:45:47;99989.81;;;14.82;64.61
71384;BME280;67558;52.166;5.004;2023-10-31T05:48:12;99986.81;;;14.83;64.62
71384;BME280;67558;52.166;5.004;2023-10-31T05:50:39;99982.88;;;14.81;64.58
71384;BME280;67558;52.166;5.004;2023-10-31T05:53:06;99989.66;;;14.78;64.71
71384;BME280;67558;52.166;5.004;2023-10-31T05:55:31;99996.94;;;14.78;64.75
71384;BME280;67558;52.166;5.004;2023-10-31T05:57:59;100008.19;;;14.80;64.58
71384;BME280;67558;52.166;5.004;2023-10-31T06:00:24;100008.19;;;14.80;64.54
71384;BME280;67558;52.166;5.004;2023-10-31T06:02:50;100002.78;;;14.80;64.84
71384;BME280;67558;52.166;5.004;2023-10-31T06:05:15;100016.25;;;14.80;64.47
71384;BME280;67558;52.166;5.004;2023-10-31T06:07:41;100015.16;;;14.81;64.45
71384;BME280;67558;52.166;5.004;2023-10-31T06:10:07;100010.56;;;14.81;64.69
71384;BME280;67558;52.166;5.004;2023-10-31T06:12:32;100010.88;;;14.80;64.57
71384;BME280;67558;52.166;5.004;2023-10-31T06:14:57;100013.09;;;14.78;64.55
71384;BME280;67558;52.166;5.004;2023-10-31T06:17:23;100012.63;;;14.76;64.66
71384;BME280;67558;52.166;5.004;2023-10-31T06:19:50;100010.25;;;14.74;64.55
71384;BME280;67558;52.166;5.004;2023-10-31T06:22:15;100029.38;;;14.72;64.58
71384;BME280;67558;52.166;5.004;2023-10-31T06:24:41;100023.03;;;14.68;64.58
71384;BME280;67558;52.166;5.004;2023-10-31T06:27:06;100023.34;;;14.67;64.44
71384;BME280;67558;52.166;5.004;2023-10-31T06:29:32;100029.06;;;14.65;63.99
71384;BME280;67558;52.166;5.004;2023-10-31T06:31:57;100024.91;;;14.59;64.53
71384;BME280;67558;52.166;5.004;2023-10-31T06:34:23;100020.44;;;14.54;64.16
71384;BME280;67558;52.166;5.004;2023-10-31T06:36:48;100028.63;;;14.49;64.38
71384;BME280;67558;52.166;5.004;2023-10-31T06:39:13;100039.56;;;14.53;64.31
71384;BME280;67558;52.166;5.004;2023-10-31T06:41:39;100038.91;;;14.47;64.23
71384;BME280;67558;52.166;5.004;2023-10-31T06:44:04;100047.31;;;14.46;64.49
71384;BME280;67558;52.166;5.004;2023-10-31T06:46:29;100045.22;;;14.43;64.36
71384;BME280;67558;52.166;5.004;2023-10-31T06:48:55;100042.88;;;14.41;64.30
71384;BME280;67558;52.166;5.004;2023-10-31T06:51:20;100047.75;;;14.39;64.50
71384;BME280;67558;52.166;5.004;2023-10-31T06:53:46;100051.22;;;14.40;64.51
71384;BME280;67558;52.166;5.004;2023-10-31T06:56:11;100051.53;;;14.38;64.73
71384;BME280;67558;52.166;5.004;2023-10-31T06:58:37;100057.22;;;14.37;64.94
71384;BME280;67558;52.166;5.004;2023-10-31T07:01:02;100053.94;;;14.40;65.08
71384;BME280;67558;52.166;5.004;2023-10-31T07:03:28;100065.16;;;14.42;65.43
71384;BME280;67558;52.166;5.004;2023-10-31T07:05:53;100072.00;;;14.48;65.31
71384;BME280;67558;52.166;5.004;2023-10-31T07:08:21;100071.38;;;14.51;65.42
71384;BME280;67558;52.166;5.004;2023-10-31T07:10:46;100071.28;;;14.56;65.19
71384;BME280;67558;52.166;5.004;2023-10-31T07:13:12;100079.53;;;14.60;65.41
71384;BME280;67558;52.166;5.004;2023-10-31T07:15:37;100088.28;;;14.65;65.49
71384;BME280;67558;52.166;5.004;2023-10-31T07:18:05;100086.84;;;14.68;65.45
71384;BME280;67558;52.166;5.004;2023-10-31T07:20:32;100083.84;;;14.69;65.42
71384;BME280;67558;52.166;5.004;2023-10-31T07:22:58;100085.63;;;14.74;65.21
71384;BME280;67558;52.166;5.004;2023-10-31T07:25:23;100089.59;;;14.77;65.44
71384;BME280;67558;52.166;5.004;2023-10-31T07:27:49;100098.00;;;14.84;65.40
71384;BME280;67558;52.166;5.004;2023-10-31T07:30:14;100095.47;;;14.87;65.16
71384;BME280;67558;52.166;5.004;2023-10-31T07:32:40;100097.38;;;14.87;65.29
71384;BME280;67558;52.166;5.004;2023-10-31T07:35:06;100098.47;;;14.86;65.32
71384;BME280;67558;52.166;5.004;2023-10-31T07:37:31;100107.41;;;14.95;65.15
71384;BME280;67558;52.166;5.004;2023-10-31T07:39:56;100107.59;;;15.16;64.44
71384;BME280;67558;52.166;5.004;2023-10-31T07:42:22;100104.94;;;15.25;64.62
71384;BME280;67558;52.166;5.004;2023-10-31T07:44:47;100119.38;;;15.29;64.50
71384;BME280;67558;52.166;5.004;2023-10-31T07:47:12;100121.59;;;15.35;64.52
71384;BME280;67558;52.166;5.004;2023-10-31T07:49:38;100118.00;;;15.40;64.34
71384;BME280;67558;52.166;5.004;2023-10-31T07:52:04;100113.53;;;15.44;64.03
71384;BME280;67558;52.166;5.004;2023-10-31T07:54:29;100119.88;;;15.48;64.13
71384;BME280;67558;52.166;5.004;2023-10-31T07:56:55;100122.09;;;15.46;64.38
71384;BME280;67558;52.166;5.004;2023-10-31T07:59:20;100125.16;;;15.53;64.24
71384;BME280;67558;52.166;5.004;2023-10-31T08:01:45;100123.41;;;15.57;64.11
71384;BME280;67558;52.166;5.004;2023-10-31T08:04:11;100128.63;;;15.63;64.25
71384;BME280;67558;52.166;5.004;2023-10-31T08:06:36;100127.69;;;15.67;64.05
71384;BME280;67558;52.166;5.004;2023-10-31T08:09:01;100127.06;;;15.70;64.20
71384;BME280;67558;52.166;5.004;2023-10-31T08:11:27;100124.25;;;15.75;64.20
71384;BME280;67558;52.166;5.004;2023-10-31T08:13:53;100125.97;;;15.80;63.88
71384;BME280;67558;52.166;5.004;2023-10-31T08:16:19;100131.53;;;15.84;64.00
71384;BME280;67558;52.166;5.004;2023-10-31T08:18:45;100130.91;;;15.87;63.96
71384;BME280;67558;52.166;5.004;2023-10-31T08:21:11;100129.47;;;15.89;63.92
71384;BME280;67558;52.166;5.004;2023-10-31T08:23:37;100126.47;;;15.91;63.69
71384;BME280;67558;52.166;5.004;2023-10-31T08:26:02;100128.19;;;15.95;63.72
71384;BME280;67558;52.166;5.004;2023-10-31T08:28:28;100134.56;;;16.00;64.04
71384;BME280;67558;52.166;5.004;2023-10-31T08:30:54;100131.84;;;16.00;64.07
71384;BME280;67558;52.166;5.004;2023-10-31T08:33:19;100128.53;;;16.03;63.40
71384;BME280;67558;52.166;5.004;2023-10-31T08:35:44;100131.84;;;16.08;63.71
71384;BME280;67558;52.166;5.004;2023-10-31T08:38:10;100128.19;;;16.13;63.43
71384;BME280;67558;52.166;5.004;2023-10-31T08:40:35;100140.41;;;16.19;63.52
71384;BME280;67558;52.166;5.004;2023-10-31T08:43:00;100137.09;;;16.22;63.36
71384;BME280;67558;52.166;5.004;2023-10-31T08:45:26;100142.16;;;16.24;63.01
71384;BME280;67558;52.166;5.004;2023-10-31T08:47:51;100142.63;;;16.26;63.21
71384;BME280;67558;52.166;5.004;2023-10-31T08:50:17;100149.31;;;16.28;62.91
71384;BME280;67558;52.166;5.004;2023-10-31T08:52:42;100152.00;;;16.28;63.17
71384;BME280;67558;52.166;5.004;2023-10-31T08:55:07;100147.22;;;16.25;63.33
71384;BME280;67558;52.166;5.004;2023-10-31T08:57:33;100155.97;;;16.22;63.59
71384;BME280;67558;52.166;5.004;2023-10-31T09:00:01;100156.94;;;16.26;63.67
71384;BME280;67558;52.166;5.004;2023-10-31T09:02:26;100163.72;;;16.32;63.57
71384;BME280;67558;52.166;5.004;2023-10-31T09:04:52;100169.59;;;16.34;63.48
71384;BME280;67558;52.166;5.004;2023-10-31T09:07:17;100171.03;;;16.41;63.11
71384;BME280;67558;52.166;5.004;2023-10-31T09:09:42;100170.53;;;16.47;63.40
71384;BME280;67558;52.166;5.004;2023-10-31T09:12:08;100180.69;;;16.59;63.61
71384;BME280;67558;52.166;5.004;2023-10-31T09:14:34;100179.22;;;16.70;64.07
71384;BME280;67558;52.166;5.004;2023-10-31T09:17:00;100183.19;;;16.82;64.03
71384;BME280;67558;52.166;5.004;2023-10-31T09:19:26;100186.81;;;16.94;63.98
71384;BME280;67558;52.166;5.004;2023-10-31T09:21:51;100187.72;;;17.07;64.14
71384;BME280;67558;52.166;5.004;2023-10-31T09:24:16;100184.69;;;17.17;63.60
71384;BME280;67558;52.166;5.004;2023-10-31T09:26:42;100187.66;;;17.25;63.66
71384;BME280;67558;52.166;5.004;2023-10-31T09:29:09;100195.59;;;17.30;63.73
71384;BME280;67558;52.166;5.004;2023-10-31T09:31:35;100201.75;;;17.39;63.78
71384;BME280;67558;52.166;5.004;2023-10-31T09:34:00;100201.38;;;17.49;63.44
71384;BME280;67558;52.166;5.004;2023-10-31T09:36:28;100201.03;;;17.59;63.15
71384;BME280;67558;52.166;5.004;2023-10-31T09:38:54;100197.78;;;17.66;63.36
71384;BME280;67558;52.166;5.004;2023-10-31T09:41:19;100198.72;;;17.70;62.82
71384;BME280;67558;52.166;5.004;2023-10-31T09:43:45;100194.38;;;17.78;62.63
71384;BME280;67558;52.166;5.004;2023-10-31T09:46:14;100197.38;;;17.76;62.71
71384;BME280;67558;52.166;5.004;2023-10-31T09:48:40;100196.44;;;17.81;62.37
71384;BME280;67558;52.166;5.004;2023-10-31T09:51:06;100206.28;;;17.86;62.31
71384;BME280;67558;52.166;5.004;2023-10-31T09:53:37;100209.13;;;17.89;62.04
71384;BME280;67558;52.166;5.004;2023-10-31T09:56:06;100214.19;;;17.91;61.95
71384;BME280;67558;52.166;5.004;2023-10-31T09:58:32;100211.50;;;17.91;62.08
71384;BME280;67558;52.166;5.004;2023-10-31T10:00:58;100221.34;;;17.95;61.64
71384;BME280;67558;52.166;5.004;2023-10-31T10:03:23;100235.53;;;17.92;61.77
71384;BME280;67558;52.166;5.004;2023-10-31T10:05:49;100224.72;;;17.92;61.53
71384;BME280;67558;52.166;5.004;2023-10-31T10:08:15;100228.97;;;17.93;61.68
71384;BME280;67558;52.166;5.004;2023-10-31T10:10:41;100239.03;;;17.93;61.59
71384;BME280;67558;52.166;5.004;2023-10-31T10:13:06;100240.28;;;17.95;61.75
71384;BME280;67558;52.166;5.004;2023-10-31T10:15:46;100242.03;;;17.91;61.48
71384;BME280;67558;52.166;5.004;2023-10-31T10:18:30;100243.97;;;17.91;61.35
71384;BME280;67558;52.166;5.004;2023-10-31T10:21:03;100255.56;;;17.91;61.37
71384;BME280;67558;52.166;5.004;2023-10-31T10:23:29;100255.09;;;17.89;61.42
71384;BME280;67558;52.166;5.004;2023-10-31T10:25:56;100251.94;;;17.87;61.24
71384;BME280;67558;52.166;5.004;2023-10-31T10:28:22;100248.91;;;17.89;61.45
71384;BME280;67558;52.166;5.004;2023-10-31T10:30:50;100248.13;;;17.88;61.24
71384;BME280;67558;52.166;5.004;2023-10-31T10:33:16;100252.09;;;17.91;61.17
71384;BME280;67558;52.166;5.004;2023-10-31T10:35:42;100251.75;;;17.92;61.19
71384;BME280;67558;52.166;5.004;2023-10-31T10:38:16;100258.22;;;18.00;60.95
71384;BME280;67558;52.166;5.004;2023-10-31T10:40:43;100261.84;;;18.04;60.81
71384;BME280;67558;52.166;5.004;2023-10-31T10:43:28;100253.28;;;18.02;60.14
71384;BME280;67558;52.166;5.004;2023-10-31T10:45:58;100259.91;;;18.13;60.93
71384;BME280;67558;52.166;5.004;2023-10-31T10:48:25;100260.94;;;18.21;61.08
71384;BME280;67558;52.166;5.004;2023-10-31T10:50:57;100261.88;;;18.25;60.70
71384;BME280;67558;52.166;5.004;2023-10-31T10:53:26;100263.53;;;18.38;60.83
71384;BME280;67558;52.166;5.004;2023-10-31T10:56:00;100264.69;;;18.50;60.43
71384;BME280;67558;52.166;5.004;2023-10-31T10:58:46;100261.13;;;18.58;59.58
71384;BME280;67558;52.166;5.004;2023-10-31T11:01:13;100264.69;;;18.71;60.50
71384;BME280;67558;52.166;5.004;2023-10-31T11:03:39;100267.94;;;18.85;60.40
71384;BME280;67558;52.166;5.004;2023-10-31T11:06:05;100269.09;;;18.96;60.08
71384;BME280;67558;52.166;5.004;2023-10-31T11:08:31;100265.16;;;19.06;59.78
71384;BME280;67558;52.166;5.004;2023-10-31T11:10:57;100267.44;;;19.16;59.78
71384;BME280;67558;52.166;5.004;2023-10-31T11:13:24;100262.47;;;19.18;59.31
71384;BME280;67558;52.166;5.004;2023-10-31T11:15:52;100276.94;;;19.22;58.97
71384;BME280;67558;52.166;5.004;2023-10-31T11:18:19;100281.25;;;19.23;58.99
71384;BME280;67558;52.166;5.004;2023-10-31T11:20:46;100277.16;;;19.17;59.07
71384;BME280;67558;52.166;5.004;2023-10-31T11:23:11;100287.22;;;19.17;59.02
71384;BME280;67558;52.166;5.004;2023-10-31T11:25:42;100288.44;;;19.07;58.90
71384;BME280;67558;52.166;5.004;2023-10-31T11:28:16;100301.75;;;19.00;58.97
71384;BME280;67558;52.166;5.004;2023-10-31T11:30:42;100314.25;;;18.92;59.29
71384;BME280;67558;52.166;5.004;2023-10-31T11:33:14;100292.38;;;18.76;59.04
71384;BME280;67558;52.166;5.004;2023-10-31T11:35:40;100288.03;;;18.63;59.22
71384;BME280;67558;52.166;5.004;2023-10-31T11:38:08;100300.03;;;18.53;59.62
71384;BME280;67558;52.166;5.004;2023-10-31T11:41:02;100298.16;;;18.33;59.94
71384;BME280;67558;52.166;5.004;2023-10-31T11:46:05;100295.28;;;18.29;60.41
71384;BME280;67558;52.166;5.004;2023-10-31T11:48:49;100296.75;;;18.27;61.35
71384;BME280;67558;52.166;5.004;2023-10-31T11:51:16;100289.88;;;18.29;60.76
71384;BME280;67558;52.166;5.004;2023-10-31T11:53:43;100293.50;;;18.33;61.42
71384;BME280;67558;52.166;5.004;2023-10-31T11:56:10;100292.53;;;18.38;61.08
71384;BME280;67558;52.166;5.004;2023-10-31T11:58:36;100296.47;;;18.40;61.38
71384;BME280;67558;52.166;5.004;2023-10-31T12:01:04;100289.59;;;18.43;61.53
71384;BME280;67558;52.166;5.004;2023-10-31T12:03:43;100306.19;;;18.41;61.31
71384;BME280;67558;52.166;5.004;2023-10-31T12:06:13;100306.53;;;18.40;61.71
71384;BME280;67558;52.166;5.004;2023-10-31T12:08:40;100306.78;;;18.47;61.35
71384;BME280;67558;52.166;5.004;2023-10-31T12:11:11;100314.91;;;18.47;61.14
71384;BME280;67558;52.166;5.004;2023-10-31T12:13:39;100307.44;;;18.44;61.13
71384;BME280;67558;52.166;5.004;2023-10-31T12:16:06;100317.69;;;18.38;60.81
71384;BME280;67558;52.166;5.004;2023-10-31T12:18:34;100317.88;;;18.33;61.22
71384;BME280;67558;52.166;5.004;2023-10-31T12:20:59;100331.09;;;18.35;60.97
71384;BME280;67558;52.166;5.004;2023-10-31T12:23:25;100328.84;;;18.37;61.27
71384;BME280;67558;52.166;5.004;2023-10-31T12:25:51;100329.13;;;18.44;61.71
71384;BME280;67558;52.166;5.004;2023-10-31T12:28:20;100334.00;;;18.51;61.36
71384;BME280;67558;52.166;5.004;2023-10-31T12:30:47;100322.78;;;18.61;61.05
71384;BME280;67558;52.166;5.004;2023-10-31T12:33:13;100335.72;;;18.76;61.22
71384;BME280;67558;52.166;5.004;2023-10-31T12:35:39;100329.31;;;18.81;60.82
71384;BME280;67558;52.166;5.004;2023-10-31T12:38:05;100333.75;;;18.86;60.96
71384;BME280;67558;52.166;5.004;2023-10-31T12:40:31;100331.38;;;18.84;60.61
71384;BME280;67558;52.166;5.004;2023-10-31T12:42:57;100333.09;;;18.89;60.74
71384;BME280;67558;52.166;5.004;2023-10-31T12:45:22;100334.91;;;18.97;60.60
71384;BME280;67558;52.166;5.004;2023-10-31T12:48:05;100335.13;;;18.92;60.46
71384;BME280;67558;52.166;5.004;2023-10-31T12:50:32;100334.91;;;18.97;60.37
71384;BME280;67558;52.166;5.004;2023-10-31T12:52:58;100334.81;;;18.93;60.31